Time;durP1;ratioP1;P1;durP2;ratioP2;P2;SDS_P1;SDS_P2;PMS_P1;PMS_P2;Temp;Humidity;BMP_temperature;BMP_pressure;BME280_temperature;BME280_humidity;BME280_pressure;Samples;Min_cycle;Max_cycle;Signal;HPM_P1;HPM_P2
2024/02/20 00:00:07;;;;;;;8.88;3.10;;;;;;;;;;5012135;28;20199;-89
2024/02/20 00:02:35;;;;;;;4.20;2.75;;;;;;;;;;5012539;28;20238;-89
2024/02/20 00:05:04;;;;;;;2.58;2.20;;;;;;;;;;5012285;28;20199;-89
2024/02/20 00:07:33;;;;;;;4.30;2.05;;;;;;;;;;5012509;28;20567;-89
2024/02/20 00:10:01;;;;;;;9.25;2.78;;;;;;;;;;5012734;28;20310;-90
2024/02/20 00:12:29;;;;;;;2.30;1.83;;;;;;;;;;5011783;28;20237;-91
2024/02/20 00:14:58;;;;;;;3.40;2.20;;;;;;;;;;5018252;28;20196;-90
2024/02/20 00:17:27;;;;;;;3.38;1.80;;;;;;;;;;5012337;28;20227;-90
2024/02/20 00:19:54;;;;;;;2.83;2.05;;;;;;;;;;5012215;28;20672;-90
2024/02/20 00:22:22;;;;;;;3.10;2.00;;;;;;;;;;5012815;28;20314;-90
2024/02/20 00:24:51;;;;;;;4.28;1.90;;;;;;;;;;5014341;28;20205;-90
2024/02/20 00:27:19;;;;;;;1.60;1.40;;;;;;;;;;5017157;28;20205;-89
2024/02/20 00:29:46;;;;;;;2.22;1.48;;;;;;;;;;5015255;28;20668;-90
2024/02/20 00:32:14;;;;;;;2.33;1.30;;;;;;;;;;5015275;28;20237;-90
2024/02/20 00:34:42;;;;;;;1.50;1.40;;;;;;;;;;5015990;28;20294;-90
2024/02/20 00:37:09;;;;;;;2.90;1.95;;;;;;;;;;5015831;28;20267;-90
2024/02/20 00:39:37;;;;;;;1.77;1.58;;;;;;;;;;5015693;28;20199;-89
2024/02/20 00:42:07;;;;;;;2.40;1.83;;;;;;;;;;5014984;28;20733;-90
2024/02/20 00:44:34;;;;;;;2.78;1.83;;;;;;;;;;5015171;28;20313;-90
2024/02/20 00:47:03;;;;;;;1.98;1.77;;;;;;;;;;5015339;28;20286;-90
2024/02/20 00:49:30;;;;;;;2.30;1.65;;;;;;;;;;5015159;28;20298;-90
2024/02/20 00:51:58;;;;;;;2.70;1.30;;;;;;;;;;5014684;28;20697;-90
2024/02/20 00:54:25;;;;;;;2.28;1.90;;;;;;;;;;5015259;28;20206;-89
2024/02/20 00:56:53;;;;;;;1.77;1.13;;;;;;;;;;5014989;28;20290;-90
2024/02/20 00:59:22;;;;;;;1.15;1.05;;;;;;;;;;5015338;28;20213;-90
2024/02/20 01:01:50;;;;;;;1.17;1.00;;;;;;;;;;5029528;28;20234;-89
2024/02/20 01:04:17;;;;;;;2.28;0.90;;;;;;;;;;5040114;28;20187;-89
2024/02/20 01:06:45;;;;;;;4.38;2.25;;;;;;;;;;5029734;28;20230;-88
2024/02/20 01:09:13;;;;;;;3.08;1.60;;;;;;;;;;5035546;28;20215;-89
2024/02/20 01:11:40;;;;;;;1.50;1.40;;;;;;;;;;5037400;28;20669;-90
2024/02/20 01:14:08;;;;;;;3.03;1.40;;;;;;;;;;5017243;28;20218;-90
2024/02/20 01:16:37;;;;;;;1.20;1.10;;;;;;;;;;5015857;28;20609;-89
2024/02/20 01:19:07;;;;;;;2.00;1.40;;;;;;;;;;5014962;28;20271;-90
2024/02/20 01:21:34;;;;;;;3.42;1.98;;;;;;;;;;5015749;28;20616;-89
2024/02/20 01:24:02;;;;;;;1.92;1.40;;;;;;;;;;5021663;28;20262;-89
2024/02/20 01:26:30;;;;;;;2.15;1.52;;;;;;;;;;5038657;28;20191;-89
2024/02/20 01:28:58;;;;;;;2.30;1.48;;;;;;;;;;5039298;28;20186;-88
2024/02/20 01:31:26;;;;;;;1.15;1.10;;;;;;;;;;5038112;28;20214;-89
2024/02/20 01:33:55;;;;;;;4.50;2.20;;;;;;;;;;5038704;28;20227;-89
2024/02/20 01:36:24;;;;;;;1.52;1.30;;;;;;;;;;5036536;28;20605;-89
2024/02/20 01:38:51;;;;;;;2.00;1.35;;;;;;;;;;5039227;28;20203;-88
2024/02/20 01:41:19;;;;;;;3.40;1.38;;;;;;;;;;5037075;28;20199;-88
2024/02/20 01:43:48;;;;;;;2.22;1.30;;;;;;;;;;5036964;28;20210;-90
2024/02/20 01:46:21;;;;;;;1.85;1.48;;;;;;;;;;5039067;28;20206;-89
2024/02/20 01:48:49;;;;;;;6.85;2.15;;;;;;;;;;5029418;28;20262;-90
2024/02/20 01:51:18;;;;;;;4.63;1.75;;;;;;;;;;5029784;28;20270;-89
2024/02/20 01:53:47;;;;;;;8.45;3.22;;;;;;;;;;5034206;28;20226;-89
2024/02/20 01:56:15;;;;;;;4.75;1.90;;;;;;;;;;5023284;28;20274;-90
2024/02/20 01:58:43;;;;;;;5.70;1.58;;;;;;;;;;5031520;28;20466;-90
2024/02/20 02:01:11;;;;;;;2.65;1.50;;;;;;;;;;5029293;28;20188;-88
2024/02/20 02:03:38;;;;;;;2.38;1.23;;;;;;;;;;5037323;28;20219;-89
2024/02/20 02:06:06;;;;;;;2.72;1.20;;;;;;;;;;5034977;28;20230;-90
2024/02/20 02:08:36;;;;;;;5.80;1.52;;;;;;;;;;5037727;28;20262;-89
2024/02/20 02:11:04;;;;;;;2.08;1.63;;;;;;;;;;5036623;28;20218;-89
2024/02/20 02:13:31;;;;;;;3.67;1.63;;;;;;;;;;5036967;28;20231;-90
2024/02/20 02:15:59;;;;;;;4.25;2.50;;;;;;;;;;5038008;28;20214;-91
2024/02/20 02:18:26;;;;;;;3.80;1.90;;;;;;;;;;5037960;28;20210;-89
2024/02/20 02:20:54;;;;;;;3.92;1.90;;;;;;;;;;5026198;28;20238;-90
2024/02/20 02:23:22;;;;;;;3.42;1.90;;;;;;;;;;5022037;28;20228;-90
2024/02/20 02:25:51;;;;;;;5.50;2.05;;;;;;;;;;5014243;28;20267;-89
2024/02/20 02:28:19;;;;;;;4.43;2.35;;;;;;;;;;5013423;28;20642;-91
2024/02/20 02:30:47;;;;;;;5.55;1.70;;;;;;;;;;5013291;28;20281;-90
2024/02/20 02:33:15;;;;;;;6.45;3.00;;;;;;;;;;5012883;28;20314;-90
2024/02/20 02:35:43;;;;;;;7.00;1.88;;;;;;;;;;5013235;28;20210;-90
2024/02/20 02:38:11;;;;;;;6.38;1.83;;;;;;;;;;5013899;28;20230;-89
2024/02/20 02:40:38;;;;;;;2.58;1.75;;;;;;;;;;5013568;28;20645;-91
2024/02/20 02:43:06;;;;;;;3.03;2.55;;;;;;;;;;5020798;28;20636;-89
2024/02/20 02:45:35;;;;;;;6.57;2.42;;;;;;;;;;5012972;28;20679;-90
2024/02/20 02:48:04;;;;;;;8.80;2.33;;;;;;;;;;5012987;28;20209;-91
2024/02/20 02:50:32;;;;;;;3.53;2.50;;;;;;;;;;5012742;28;20222;-90
2024/02/20 02:52:59;;;;;;;4.70;2.00;;;;;;;;;;5012685;28;20305;-89
2024/02/20 02:55:27;;;;;;;5.35;1.95;;;;;;;;;;5012557;28;20247;-90
2024/02/20 02:57:55;;;;;;;6.65;2.03;;;;;;;;;;5013187;28;20635;-89
2024/02/20 03:00:23;;;;;;;1.90;1.60;;;;;;;;;;5013732;28;20210;-90
2024/02/20 03:02:51;;;;;;;7.30;1.92;;;;;;;;;;5014161;28;20222;-90
2024/02/20 03:05:20;;;;;;;3.92;2.08;;;;;;;;;;5013458;28;20584;-89
2024/02/20 03:07:48;;;;;;;7.55;2.35;;;;;;;;;;5013597;28;20223;-90
2024/02/20 03:10:16;;;;;;;3.85;1.85;;;;;;;;;;5012830;28;20294;-90
2024/02/20 03:12:44;;;;;;;8.80;1.92;;;;;;;;;;5012400;28;20253;-90
2024/02/20 03:15:12;;;;;;;9.05;2.80;;;;;;;;;;5012743;28;20813;-90
2024/02/20 03:17:44;;;;;;;4.32;1.80;;;;;;;;;;5012718;28;20203;-90
2024/02/20 03:20:14;;;;;;;5.88;2.28;;;;;;;;;;5012768;28;20206;-89
2024/02/20 03:22:42;;;;;;;3.40;1.70;;;;;;;;;;5018330;28;20249;-90
2024/02/20 03:25:10;;;;;;;5.40;1.80;;;;;;;;;;5033990;28;20210;-88
2024/02/20 03:27:38;;;;;;;3.70;1.70;;;;;;;;;;5035306;28;20191;-91
2024/02/20 03:30:07;;;;;;;4.53;1.90;;;;;;;;;;5030851;28;20198;-91
2024/02/20 03:32:35;;;;;;;4.85;1.60;;;;;;;;;;5012625;28;20246;-91
2024/02/20 03:35:05;;;;;;;2.50;1.80;;;;;;;;;;5012481;28;20322;-90
2024/02/20 03:37:34;;;;;;;5.20;2.30;;;;;;;;;;5012707;28;20245;-90
2024/02/20 03:40:05;;;;;;;3.20;1.55;;;;;;;;;;5012857;28;20285;-90
2024/02/20 03:42:33;;;;;;;4.00;1.80;;;;;;;;;;5012129;28;20688;-90
2024/02/20 03:45:00;;;;;;;3.17;1.70;;;;;;;;;;5012481;28;20288;-89
2024/02/20 03:47:28;;;;;;;7.68;2.10;;;;;;;;;;5012345;28;20205;-90
2024/02/20 03:49:55;;;;;;;5.38;2.20;;;;;;;;;;5013190;28;20286;-89
2024/02/20 03:52:23;;;;;;;5.68;2.63;;;;;;;;;;5012166;28;20232;-90
2024/02/20 03:54:52;;;;;;;3.75;1.90;;;;;;;;;;5013416;28;20227;-90
2024/02/20 03:57:19;;;;;;;7.32;2.67;;;;;;;;;;5015922;28;20259;-90
2024/02/20 03:59:47;;;;;;;11.48;3.03;;;;;;;;;;5014986;28;20295;-90
2024/02/20 04:02:15;;;;;;;8.23;2.83;;;;;;;;;;5015776;28;20309;-90
2024/02/20 04:04:42;;;;;;;3.65;2.15;;;;;;;;;;5018102;28;20733;-90
2024/02/20 04:07:10;;;;;;;6.00;2.00;;;;;;;;;;5018233;28;20233;-90
2024/02/20 04:09:38;;;;;;;11.60;3.10;;;;;;;;;;5017721;28;20740;-90
2024/02/20 04:12:07;;;;;;;10.98;2.42;;;;;;;;;;5017611;28;20716;-90
2024/02/20 04:14:35;;;;;;;4.07;1.85;;;;;;;;;;5017463;28;20608;-90
2024/02/20 04:17:03;;;;;;;6.20;2.17;;;;;;;;;;5017492;28;20286;-90
2024/02/20 04:19:30;;;;;;;9.43;2.33;;;;;;;;;;5017716;28;20728;-90
2024/02/20 04:21:58;;;;;;;2.72;1.80;;;;;;;;;;5015875;28;20314;-91
2024/02/20 04:24:25;;;;;;;5.55;2.10;;;;;;;;;;5015769;28;20584;-90
2024/02/20 04:26:53;;;;;;;5.93;2.50;;;;;;;;;;5015638;28;20289;-90
2024/02/20 04:29:22;;;;;;;8.90;2.55;;;;;;;;;;5015539;28;20214;-90
2024/02/20 04:31:49;;;;;;;4.85;2.30;;;;;;;;;;5015023;28;20360;-89
2024/02/20 04:34:17;;;;;;;5.90;2.28;;;;;;;;;;5015352;28;20286;-89
2024/02/20 04:36:45;;;;;;;3.90;2.67;;;;;;;;;;5015566;28;20626;-91
2024/02/20 04:39:12;;;;;;;8.43;2.97;;;;;;;;;;5015502;28;20286;-90
2024/02/20 04:41:40;;;;;;;9.57;4.05;;;;;;;;;;5018419;28;20277;-89
2024/02/20 04:44:07;;;;;;;3.78;2.15;;;;;;;;;;5014398;28;20607;-90
2024/02/20 04:46:36;;;;;;;19.08;3.55;;;;;;;;;;5015380;28;20278;-89
2024/02/20 04:49:04;;;;;;;6.10;2.58;;;;;;;;;;5015565;28;20211;-90
2024/02/20 04:51:35;;;;;;;7.03;3.20;;;;;;;;;;5015006;28;20226;-89
2024/02/20 04:54:02;;;;;;;10.07;2.65;;;;;;;;;;5015108;28;20196;-90
2024/02/20 04:56:30;;;;;;;7.10;3.08;;;;;;;;;;5014893;28;20671;-90
2024/02/20 04:58:57;;;;;;;7.32;2.30;;;;;;;;;;5015131;28;20305;-90
2024/02/20 05:01:25;;;;;;;8.23;2.97;;;;;;;;;;5014784;28;20577;-90
2024/02/20 05:03:54;;;;;;;14.40;3.05;;;;;;;;;;5014868;28;20226;-90
2024/02/20 05:06:22;;;;;;;7.32;2.47;;;;;;;;;;5014724;28;20652;-89
2024/02/20 05:08:49;;;;;;;7.57;2.72;;;;;;;;;;5014644;28;20291;-91
2024/02/20 05:11:17;;;;;;;14.18;4.53;;;;;;;;;;5014189;28;20285;-89
2024/02/20 05:13:44;;;;;;;6.88;2.40;;;;;;;;;;5014482;28;20314;-90
2024/02/20 05:16:12;;;;;;;11.45;3.92;;;;;;;;;;5014542;28;20681;-90
2024/02/20 05:18:40;;;;;;;17.98;4.53;;;;;;;;;;5014276;28;20752;-90
2024/02/20 05:21:09;;;;;;;9.23;2.83;;;;;;;;;;5014335;28;20213;-90
2024/02/20 05:23:36;;;;;;;13.57;2.65;;;;;;;;;;5015803;28;20235;-91
2024/02/20 05:26:04;;;;;;;13.13;3.10;;;;;;;;;;5017222;28;20741;-90
2024/02/20 05:28:32;;;;;;;5.85;2.67;;;;;;;;;;5014414;28;20286;-90
2024/02/20 05:30:59;;;;;;;9.50;3.17;;;;;;;;;;5014214;28;20282;-89
2024/02/20 05:33:28;;;;;;;8.45;3.03;;;;;;;;;;5014276;28;20230;-89
2024/02/20 05:35:55;;;;;;;10.48;3.00;;;;;;;;;;5014027;28;20214;-89
2024/02/20 05:38:24;;;;;;;12.18;2.80;;;;;;;;;;5014281;28;20552;-90
2024/02/20 05:40:52;;;;;;;6.00;3.20;;;;;;;;;;5014233;28;20226;-90
2024/02/20 05:43:19;;;;;;;10.20;2.47;;;;;;;;;;5013907;28;20606;-89
2024/02/20 05:45:47;;;;;;;7.93;3.78;;;;;;;;;;5013664;28;20205;-89
2024/02/20 05:48:14;;;;;;;8.80;3.35;;;;;;;;;;5014919;28;20278;-89
2024/02/20 05:50:42;;;;;;;12.90;2.88;;;;;;;;;;5015441;28;20599;-89
2024/02/20 05:53:09;;;;;;;12.38;3.75;;;;;;;;;;5013717;28;20223;-89
2024/02/20 05:55:38;;;;;;;8.10;3.13;;;;;;;;;;5013738;28;20318;-90
2024/02/20 05:58:06;;;;;;;11.98;2.60;;;;;;;;;;5013976;28;20207;-89
2024/02/20 06:00:34;;;;;;;8.60;3.10;;;;;;;;;;5014000;28;20202;-89
2024/02/20 06:03:01;;;;;;;6.32;1.88;;;;;;;;;;5013460;28;20315;-90
2024/02/20 06:05:29;;;;;;;10.20;3.00;;;;;;;;;;5014125;28;20287;-89
2024/02/20 06:07:56;;;;;;;7.40;2.50;;;;;;;;;;5013785;28;20302;-90
2024/02/20 06:10:24;;;;;;;11.13;4.15;;;;;;;;;;5013776;28;20266;-90
2024/02/20 06:12:53;;;;;;;11.65;4.13;;;;;;;;;;5013271;28;20755;-90
2024/02/20 06:15:22;;;;;;;12.13;3.30;;;;;;;;;;5013411;28;20294;-89
2024/02/20 06:17:49;;;;;;;7.90;3.63;;;;;;;;;;5013772;28;20290;-89
2024/02/20 06:20:17;;;;;;;4.32;2.25;;;;;;;;;;5015856;28;20215;-90
2024/02/20 06:22:44;;;;;;;11.10;3.63;;;;;;;;;;5013791;28;20768;-90
2024/02/20 06:25:12;;;;;;;5.68;2.30;;;;;;;;;;5014838;28;20210;-90
2024/02/20 06:27:43;;;;;;;4.45;2.38;;;;;;;;;;5014908;28;20270;-90
2024/02/20 06:30:13;;;;;;;5.75;2.60;;;;;;;;;;5013768;28;20217;-90
2024/02/20 06:32:41;;;;;;;10.65;3.95;;;;;;;;;;5012811;28;20550;-90
2024/02/20 06:35:09;;;;;;;7.25;2.78;;;;;;;;;;5013211;28;20199;-90
2024/02/20 06:37:37;;;;;;;5.50;3.45;;;;;;;;;;5021097;28;20299;-90
2024/02/20 06:40:06;;;;;;;15.68;3.97;;;;;;;;;;5013702;28;20661;-90
2024/02/20 06:42:34;;;;;;;9.88;3.30;;;;;;;;;;5012983;28;20218;-90
2024/02/20 06:45:02;;;;;;;12.88;3.85;;;;;;;;;;5013000;28;20740;-89
2024/02/20 06:47:31;;;;;;;6.10;2.83;;;;;;;;;;5012933;28;20294;-90
2024/02/20 06:49:58;;;;;;;5.53;2.30;;;;;;;;;;5012953;28;20286;-90
2024/02/20 06:52:26;;;;;;;9.60;3.40;;;;;;;;;;5012778;28;20318;-90
2024/02/20 06:54:53;;;;;;;9.13;3.30;;;;;;;;;;5013054;28;20740;-90
2024/02/20 06:57:21;;;;;;;9.02;2.88;;;;;;;;;;5012549;28;20229;-90
2024/02/20 06:59:48;;;;;;;7.78;2.60;;;;;;;;;;5012912;28;20693;-90
2024/02/20 07:02:16;;;;;;;7.93;2.70;;;;;;;;;;5014120;28;20604;-90
2024/02/20 07:04:45;;;;;;;7.75;2.97;;;;;;;;;;5012684;28;20305;-89
2024/02/20 07:07:12;;;;;;;4.60;2.28;;;;;;;;;;5012867;28;20237;-90
2024/02/20 07:09:40;;;;;;;6.03;2.95;;;;;;;;;;5012675;28;20290;-89
2024/02/20 07:12:09;;;;;;;5.40;2.20;;;;;;;;;;5012417;28;20233;-89
2024/02/20 07:14:38;;;;;;;10.95;3.20;;;;;;;;;;5022695;28;20179;-89
2024/02/20 07:17:06;;;;;;;8.70;3.22;;;;;;;;;;5037212;28;20222;-89
2024/02/20 07:19:33;;;;;;;9.68;3.85;;;;;;;;;;5038095;28;20190;-89
2024/02/20 07:22:03;;;;;;;5.38;2.22;;;;;;;;;;5037402;28;20227;-90
2024/02/20 07:24:30;;;;;;;7.05;3.65;;;;;;;;;;5029221;28;20574;-89
2024/02/20 07:26:58;;;;;;;4.90;2.42;;;;;;;;;;5013268;28;20195;-89
2024/02/20 07:29:26;;;;;;;10.75;3.00;;;;;;;;;;5012836;28;20668;-89
2024/02/20 07:31:55;;;;;;;8.52;4.20;;;;;;;;;;5012917;28;20689;-89
2024/02/20 07:34:23;;;;;;;7.70;3.40;;;;;;;;;;5014113;28;20285;-89
2024/02/20 07:36:50;;;;;;;9.63;2.67;;;;;;;;;;5016417;28;20314;-90
2024/02/20 07:39:19;;;;;;;5.35;2.85;;;;;;;;;;5016701;28;20225;-89
2024/02/20 07:41:47;;;;;;;7.13;3.58;;;;;;;;;;5016030;28;20318;-89
2024/02/20 07:44:14;;;;;;;7.25;2.50;;;;;;;;;;5015972;28;20289;-90
2024/02/20 07:46:42;;;;;;;13.27;3.33;;;;;;;;;;5016575;28;20203;-89
2024/02/20 07:49:09;;;;;;;4.45;2.88;;;;;;;;;;5016440;28;20282;-89
2024/02/20 07:51:37;;;;;;;9.98;3.53;;;;;;;;;;5016262;28;20209;-89
2024/02/20 07:54:05;;;;;;;10.15;2.90;;;;;;;;;;5016270;28;20286;-89
2024/02/20 07:56:34;;;;;;;15.75;6.43;;;;;;;;;;5016090;28;20229;-90
2024/02/20 07:59:01;;;;;;;11.75;5.38;;;;;;;;;;5016115;28;20314;-90
2024/02/20 08:01:29;;;;;;;7.03;3.22;;;;;;;;;;5015854;28;20213;-89
2024/02/20 08:03:56;;;;;;;9.98;3.65;;;;;;;;;;5016029;28;20209;-89
2024/02/20 08:06:24;;;;;;;7.70;4.03;;;;;;;;;;5016332;28;20203;-89
2024/02/20 08:08:52;;;;;;;9.70;3.70;;;;;;;;;;5015932;28;20213;-89
2024/02/20 08:11:19;;;;;;;6.15;2.65;;;;;;;;;;5015682;28;20279;-90
2024/02/20 08:13:50;;;;;;;8.25;3.40;;;;;;;;;;5015694;28;20314;-89
2024/02/20 08:16:18;;;;;;;11.45;3.67;;;;;;;;;;5015862;28;20286;-89
2024/02/20 08:18:45;;;;;;;11.40;4.57;;;;;;;;;;5015832;28;20199;-90
2024/02/20 08:21:13;;;;;;;7.28;3.42;;;;;;;;;;5015354;28;20281;-89
2024/02/20 08:23:43;;;;;;;12.80;4.28;;;;;;;;;;5015284;28;20775;-88
2024/02/20 08:26:11;;;;;;;7.95;3.30;;;;;;;;;;5015377;28;20201;-89
2024/02/20 08:28:38;;;;;;;9.68;2.80;;;;;;;;;;5015617;28;20290;-88
2024/02/20 08:31:08;;;;;;;4.93;2.22;;;;;;;;;;5015304;28;20199;-88
2024/02/20 08:33:36;;;;;;;6.75;2.53;;;;;;;;;;5014977;28;20229;-89
2024/02/20 08:36:04;;;;;;;10.93;3.55;;;;;;;;;;5015691;28;20203;-88
2024/02/20 08:38:32;;;;;;;11.80;3.85;;;;;;;;;;5015145;28;20230;-88
2024/02/20 08:40:59;;;;;;;13.02;3.55;;;;;;;;;;5015185;28;20583;-88
2024/02/20 08:43:27;;;;;;;14.98;3.58;;;;;;;;;;5015522;28;20223;-88
2024/02/20 08:45:54;;;;;;;10.25;2.83;;;;;;;;;;5014634;28;20703;-89
2024/02/20 08:48:23;;;;;;;11.02;3.00;;;;;;;;;;5015509;28;20289;-88
2024/02/20 08:50:51;;;;;;;19.20;3.92;;;;;;;;;;5015319;28;20284;-89
2024/02/20 08:53:19;;;;;;;12.57;4.65;;;;;;;;;;5015204;28;20229;-88
2024/02/20 08:55:46;;;;;;;11.40;3.90;;;;;;;;;;5015238;28;20201;-89
2024/02/20 08:58:14;;;;;;;11.23;3.65;;;;;;;;;;5015152;28;20666;-88
2024/02/20 09:00:42;;;;;;;12.05;4.47;;;;;;;;;;5015211;28;20211;-88
2024/02/20 09:03:09;;;;;;;8.65;3.17;;;;;;;;;;5015097;28;20715;-89
2024/02/20 09:05:38;;;;;;;10.02;4.05;;;;;;;;;;5015290;28;20887;-88
2024/02/20 09:08:07;;;;;;;12.93;4.10;;;;;;;;;;5015060;28;20545;-89
2024/02/20 09:10:35;;;;;;;7.05;2.42;;;;;;;;;;5014960;28;20286;-88
2024/02/20 09:13:02;;;;;;;8.80;3.40;;;;;;;;;;5014552;28;20318;-88
2024/02/20 09:15:30;;;;;;;6.63;3.25;;;;;;;;;;5014961;28;20668;-89
2024/02/20 09:17:58;;;;;;;12.70;4.18;;;;;;;;;;5014731;28;20314;-88
2024/02/20 09:20:25;;;;;;;6.35;2.80;;;;;;;;;;5017509;28;20838;-89
2024/02/20 09:22:54;;;;;;;7.20;3.88;;;;;;;;;;5014941;28;20305;-89
2024/02/20 09:25:22;;;;;;;8.70;3.28;;;;;;;;;;5014683;28;20246;-88
2024/02/20 09:27:49;;;;;;;9.25;3.47;;;;;;;;;;5023783;28;20267;-88
2024/02/20 09:30:17;;;;;;;7.43;2.85;;;;;;;;;;5039653;28;20206;-88
2024/02/20 09:32:45;;;;;;;7.55;3.50;;;;;;;;;;5039116;28;20247;-87
2024/02/20 09:35:14;;;;;;;17.25;4.47;;;;;;;;;;5037334;28;20194;-89
2024/02/20 09:37:41;;;;;;;9.45;3.33;;;;;;;;;;5019181;28;20381;-88
2024/02/20 09:40:14;;;;;;;9.32;3.63;;;;;;;;;;5015215;28;20198;-88
2024/02/20 09:42:42;;;;;;;12.60;4.82;;;;;;;;;;5014752;28;20221;-88
2024/02/20 09:45:16;;;;;;;9.25;3.42;;;;;;;;;;5014123;28;20294;-88
2024/02/20 09:47:44;;;;;;;7.95;2.90;;;;;;;;;;5014559;28;20210;-88
2024/02/20 09:50:12;;;;;;;4.75;2.35;;;;;;;;;;5014306;28;20215;-87
2024/02/20 09:52:41;;;;;;;9.32;2.97;;;;;;;;;;5014544;28;20234;-89
2024/02/20 09:55:11;;;;;;;6.18;2.90;;;;;;;;;;5014309;28;20210;-87
2024/02/20 09:57:39;;;;;;;5.97;2.85;;;;;;;;;;5013308;28;20218;-88
2024/02/20 10:00:09;;;;;;;8.60;2.95;;;;;;;;;;5014385;28;20205;-88
2024/02/20 10:02:37;;;;;;;9.02;3.80;;;;;;;;;;5013601;28;20736;-88
2024/02/20 10:05:05;;;;;;;7.22;3.13;;;;;;;;;;5014106;28;20199;-89
2024/02/20 10:07:38;;;;;;;8.38;3.25;;;;;;;;;;5014291;28;20257;-88
2024/02/20 10:10:10;;;;;;;16.45;4.35;;;;;;;;;;5013969;28;20384;-88
2024/02/20 10:12:39;;;;;;;5.85;2.95;;;;;;;;;;5013476;28;20598;-88
2024/02/20 10:15:08;;;;;;;7.68;3.28;;;;;;;;;;5013854;28;20207;-88
2024/02/20 10:17:36;;;;;;;7.60;4.18;;;;;;;;;;5013724;28;20242;-88
2024/02/20 10:20:12;;;;;;;9.20;3.60;;;;;;;;;;5013528;28;20832;-89
2024/02/20 10:22:40;;;;;;;10.45;4.43;;;;;;;;;;5013530;28;20222;-87
2024/02/20 10:25:13;;;;;;;6.97;2.90;;;;;;;;;;5013701;28;20229;-88
2024/02/20 10:27:41;;;;;;;6.63;2.78;;;;;;;;;;5015660;28;20246;-89
2024/02/20 10:30:09;;;;;;;6.15;2.50;;;;;;;;;;5014014;28;20290;-88
2024/02/20 10:32:37;;;;;;;5.32;2.38;;;;;;;;;;5013200;28;20337;-89
2024/02/20 10:35:09;;;;;;;9.10;2.78;;;;;;;;;;5013559;28;20218;-88
2024/02/20 10:37:37;;;;;;;7.53;2.70;;;;;;;;;;5013810;28;20573;-87
2024/02/20 10:40:06;;;;;;;9.88;2.63;;;;;;;;;;5013213;28;20302;-89
2024/02/20 10:42:36;;;;;;;6.07;2.40;;;;;;;;;;5013036;28;20241;-88
2024/02/20 10:45:09;;;;;;;3.58;1.77;;;;;;;;;;5013052;28;20234;-88
2024/02/20 10:47:40;;;;;;;3.88;1.90;;;;;;;;;;5013561;28;20211;-87
2024/02/20 10:50:09;;;;;;;6.03;2.50;;;;;;;;;;5013357;28;20195;-89
2024/02/20 10:52:37;;;;;;;3.90;1.90;;;;;;;;;;5012818;28;20310;-88
2024/02/20 10:55:07;;;;;;;6.30;3.38;;;;;;;;;;5013252;28;20229;-89
2024/02/20 10:57:37;;;;;;;7.63;3.03;;;;;;;;;;5013184;28;20183;-89
2024/02/20 11:00:09;;;;;;;3.63;1.90;;;;;;;;;;5012957;28;20302;-87
2024/02/20 11:02:38;;;;;;;3.60;2.10;;;;;;;;;;5012920;28;20227;-88
2024/02/20 11:05:06;;;;;;;5.50;2.47;;;;;;;;;;5013210;28;20306;-88
2024/02/20 11:07:33;;;;;;;3.63;1.92;;;;;;;;;;5012839;28;20203;-88
2024/02/20 11:10:09;;;;;;;5.47;2.13;;;;;;;;;;5012934;28;20739;-88
2024/02/20 11:12:39;;;;;;;5.72;2.05;;;;;;;;;;5012745;28;20317;-89
2024/02/20 11:15:08;;;;;;;4.68;2.90;;;;;;;;;;5012967;28;20199;-88
2024/02/20 11:17:36;;;;;;;6.18;1.92;;;;;;;;;;5013309;28;20281;-89
2024/02/20 11:20:13;;;;;;;5.78;2.15;;;;;;;;;;5012639;28;20223;-89
2024/02/20 11:22:42;;;;;;;4.22;2.83;;;;;;;;;;5012708;28;20218;-89
2024/02/20 11:25:13;;;;;;;6.53;2.85;;;;;;;;;;5013221;28;20209;-87
2024/02/20 11:27:43;;;;;;;7.18;3.25;;;;;;;;;;5015834;28;20202;-88
2024/02/20 11:30:18;;;;;;;6.88;2.83;;;;;;;;;;5014756;28;20226;-89
2024/02/20 11:32:46;;;;;;;6.15;2.78;;;;;;;;;;5012514;28;20245;-89
2024/02/20 11:35:27;;;;;;;4.30;2.50;;;;;;;;;;5012704;28;20584;-89
2024/02/20 11:37:55;;;;;;;6.68;3.10;;;;;;;;;;5022493;28;20305;-87
2024/02/20 11:40:24;;;;;;;4.78;2.88;;;;;;;;;;5015402;28;20223;-89
2024/02/20 11:42:55;;;;;;;5.35;2.08;;;;;;;;;;5012610;28;20659;-89
2024/02/20 11:45:25;;;;;;;7.35;2.95;;;;;;;;;;5012524;28;20198;-90
2024/02/20 11:48:05;;;;;;;7.78;2.90;;;;;;;;;;5012698;28;20664;-90
2024/02/20 11:50:33;;;;;;;9.55;3.15;;;;;;;;;;5012653;28;20194;-89
2024/02/20 11:53:06;;;;;;;4.35;2.20;;;;;;;;;;5012210;28;20600;-89
2024/02/20 11:55:34;;;;;;;8.85;4.13;;;;;;;;;;5012510;28;20203;-89
2024/02/20 11:58:05;;;;;;;6.45;2.58;;;;;;;;;;5012595;28;20286;-90
2024/02/20 12:00:34;;;;;;;5.65;3.05;;;;;;;;;;5012543;28;20313;-89
2024/02/20 12:03:03;;;;;;;5.78;2.90;;;;;;;;;;5014360;28;20219;-89
2024/02/20 12:05:37;;;;;;;8.15;2.45;;;;;;;;;;5012680;28;20206;-89
2024/02/20 12:08:13;;;;;;;4.35;2.60;;;;;;;;;;5012658;28;20198;-90
2024/02/20 12:10:42;;;;;;;8.20;2.53;;;;;;;;;;5012515;28;20206;-90
2024/02/20 12:13:16;;;;;;;4.00;2.40;;;;;;;;;;5012222;28;20222;-89
2024/02/20 12:15:44;;;;;;;4.95;2.25;;;;;;;;;;5012377;28;20287;-90
2024/02/20 12:18:12;;;;;;;4.63;2.17;;;;;;;;;;5012224;28;20218;-90
2024/02/20 12:20:39;;;;;;;8.38;3.53;;;;;;;;;;5012399;28;20688;-90
2024/02/20 12:23:07;;;;;;;7.55;3.25;;;;;;;;;;5015760;28;20219;-89
2024/02/20 12:25:34;;;;;;;4.10;2.80;;;;;;;;;;5016388;28;20238;-90
2024/02/20 12:28:02;;;;;;;4.57;2.33;;;;;;;;;;5015680;28;20684;-90
2024/02/20 12:30:31;;;;;;;8.98;4.05;;;;;;;;;;5015830;28;20281;-90
2024/02/20 12:32:59;;;;;;;7.45;3.08;;;;;;;;;;5020740;28;20337;-90
2024/02/20 12:35:26;;;;;;;7.35;3.67;;;;;;;;;;5015980;28;20210;-89
2024/02/20 12:37:54;;;;;;;4.85;1.85;;;;;;;;;;5015914;28;20602;-89
2024/02/20 12:40:24;;;;;;;3.42;1.75;;;;;;;;;;5020515;28;20306;-89
2024/02/20 12:42:51;;;;;;;2.20;1.98;;;;;;;;;;5015571;28;20227;-90
2024/02/20 12:45:19;;;;;;;3.17;2.00;;;;;;;;;;5015516;28;20289;-90
2024/02/20 12:47:49;;;;;;;9.63;2.92;;;;;;;;;;5015501;28;20286;-89
2024/02/20 12:50:17;;;;;;;3.50;2.53;;;;;;;;;;5015567;28;20206;-89
2024/02/20 12:52:44;;;;;;;5.05;2.85;;;;;;;;;;5014842;28;20223;-90
2024/02/20 12:55:12;;;;;;;3.17;2.00;;;;;;;;;;5016621;28;20668;-89
2024/02/20 12:57:40;;;;;;;7.85;3.22;;;;;;;;;;5015411;28;20215;-89
2024/02/20 13:00:09;;;;;;;6.32;2.60;;;;;;;;;;5015336;28;20306;-89
2024/02/20 13:02:37;;;;;;;6.03;2.15;;;;;;;;;;5014639;28;20219;-90
2024/02/20 13:05:07;;;;;;;3.38;2.45;;;;;;;;;;5015389;28;20231;-90
2024/02/20 13:07:34;;;;;;;4.20;2.60;;;;;;;;;;5015034;28;20290;-89
2024/02/20 13:10:02;;;;;;;8.35;3.47;;;;;;;;;;5014930;28;20203;-89
2024/02/20 13:12:31;;;;;;;10.05;4.05;;;;;;;;;;5014815;28;20314;-90
2024/02/20 13:15:00;;;;;;;5.93;3.05;;;;;;;;;;5014887;28;20203;-90
2024/02/20 13:17:28;;;;;;;6.68;3.15;;;;;;;;;;5014927;28;20231;-90
2024/02/20 13:19:55;;;;;;;6.30;2.80;;;;;;;;;;5014507;28;20223;-90
2024/02/20 13:22:24;;;;;;;4.25;2.28;;;;;;;;;;5014365;28;20692;-90
2024/02/20 13:24:54;;;;;;;5.07;2.22;;;;;;;;;;5019714;28;20286;-89
2024/02/20 13:27:22;;;;;;;3.80;1.83;;;;;;;;;;5014819;28;20209;-89
2024/02/20 13:29:50;;;;;;;5.78;3.78;;;;;;;;;;5014390;28;20203;-89
2024/02/20 13:32:17;;;;;;;4.25;2.00;;;;;;;;;;5013952;28;20254;-90
2024/02/20 13:34:45;;;;;;;3.13;1.95;;;;;;;;;;5039119;28;20199;-89
2024/02/20 13:37:13;;;;;;;4.78;2.55;;;;;;;;;;5039248;28;20187;-90
2024/02/20 13:39:42;;;;;;;2.90;2.15;;;;;;;;;;5039164;28;20187;-89
2024/02/20 13:42:09;;;;;;;1.90;1.33;;;;;;;;;;5035759;28;20223;-89
2024/02/20 13:44:37;;;;;;;3.28;2.15;;;;;;;;;;5015355;28;20282;-89
2024/02/20 13:47:05;;;;;;;2.55;1.95;;;;;;;;;;5014621;28;20282;-89
2024/02/20 13:49:33;;;;;;;5.30;2.58;;;;;;;;;;5013961;28;20298;-89
2024/02/20 13:52:01;;;;;;;6.15;2.50;;;;;;;;;;5014101;28;20289;-89
2024/02/20 13:54:29;;;;;;;10.63;2.72;;;;;;;;;;5014286;28;20207;-89
2024/02/20 13:56:58;;;;;;;4.15;2.00;;;;;;;;;;5014036;28;20214;-89
2024/02/20 13:59:26;;;;;;;4.35;2.30;;;;;;;;;;5015940;28;20229;-89
2024/02/20 14:01:53;;;;;;;8.48;2.53;;;;;;;;;;5013268;28;20609;-90
2024/02/20 14:04:21;;;;;;;7.57;3.22;;;;;;;;;;5013999;28;20635;-90
2024/02/20 14:06:49;;;;;;;6.43;2.60;;;;;;;;;;5013806;28;20207;-90
2024/02/20 14:09:16;;;;;;;4.22;2.42;;;;;;;;;;5013688;28;20278;-90
2024/02/20 14:11:44;;;;;;;3.03;1.73;;;;;;;;;;5013502;28;20622;-90
2024/02/20 14:14:13;;;;;;;3.38;2.00;;;;;;;;;;5017527;28;20542;-89
2024/02/20 14:16:40;;;;;;;5.30;2.00;;;;;;;;;;5013704;28;20282;-89
2024/02/20 14:19:08;;;;;;;3.15;1.58;;;;;;;;;;5013534;28;20657;-89
2024/02/20 14:21:35;;;;;;;3.03;1.98;;;;;;;;;;5013043;28;20305;-90
2024/02/20 14:24:03;;;;;;;4.43;2.15;;;;;;;;;;5013395;28;20206;-90
2024/02/20 14:26:32;;;;;;;2.05;1.50;;;;;;;;;;4998219;28;20203;-89
2024/02/20 14:28:59;;;;;;;3.60;2.40;;;;;;;;;;5015171;28;20222;-89
2024/02/20 14:31:28;;;;;;;4.75;2.17;;;;;;;;;;5013195;28;20286;-90
2024/02/20 14:33:56;;;;;;;6.28;2.25;;;;;;;;;;5013566;28;20668;-89
2024/02/20 14:36:24;;;;;;;4.38;1.95;;;;;;;;;;5013710;28;20206;-89
2024/02/20 14:38:51;;;;;;;2.95;1.83;;;;;;;;;;5013570;28;20588;-89
2024/02/20 14:41:19;;;;;;;3.95;1.80;;;;;;;;;;5013265;28;20305;-89
2024/02/20 14:43:47;;;;;;;4.25;1.98;;;;;;;;;;5012663;28;20243;-90
2024/02/20 14:46:14;;;;;;;6.78;2.90;;;;;;;;;;5013435;28;20195;-89